FMSD

Tôlanaro Airport

Tôlanaro, Comoros
METAR FMSD 251800Z 06027G37KT 9999 FEW016 23/20 Q1017
Observed Flight Rules
Sep-25 @ 18:00 UTC (an hour ago) Visual Flight Rules
Wind Visibility Clouds
60° at 27 knots
 Gusting to 37 knots
10,000+ meters
  • Few at 1,600' AGL
Temperatures Readings
Current 23°C / 73°F
Dewpoint 20°C / 68°F
Humidity 83%
Altimeter 30.03" Hg
Pressure 1017 hPa
Elevation 9
METAR FMSD 251800Z 06027G37KT 9999 FEW016 23/20 Q1017
Observed Flight Rules
Sep-25 @ 18:00 UTC
(an hour ago)
VFR
Wind Visibility
60° at 27 knots
 Gusting to 37 knots
10,000+ meters
Clouds
  • Few at 1,600' AGL
Temperature Dewpoint
23°C / 73°F 20°C / 68°F
Humidity Altimeter Pressure
83% 30.03" Hg 1017 hPa